Time;durP1;ratioP1;P1;durP2;ratioP2;P2;SDS_P1;SDS_P2;PMS_P1;PMS_P2;Temp;Humidity;BMP_temperature;BMP_pressure;BME280_temperature;BME280_humidity;BME280_pressure;Samples;Min_cycle;Max_cycle;Signal;HPM_P1;HPM_P2
2022/06/13 00:01:03;;;;;;;9.02;4.28;;;;;;;18.98;39.71;99059.88;5117064;27;20523;-65
2022/06/13 00:03:29;;;;;;;7.93;4.60;;;;;;;19.01;39.66;99052.25;5116736;27;20404;-64
2022/06/13 00:05:53;;;;;;;8.68;4.45;;;;;;;18.95;39.79;99061.09;5116727;27;20035;-65
2022/06/13 00:08:18;;;;;;;9.90;4.47;;;;;;;18.97;39.44;99052.78;5117135;27;20038;-66
2022/06/13 00:10:43;;;;;;;6.85;4.10;;;;;;;18.88;40.13;99049.28;5117099;27;20393;-65
2022/06/13 00:13:08;;;;;;;7.80;4.85;;;;;;;18.90;39.59;99044.56;5064512;27;20030;-64
2022/06/13 00:15:33;;;;;;;4.57;3.80;;;;;;;18.87;39.88;99047.59;5116418;27;20095;-64
2022/06/13 00:17:58;;;;;;;6.78;4.35;;;;;;;18.87;39.21;99039.50;5098149;27;20034;-64
2022/06/13 00:20:22;;;;;;;9.02;4.43;;;;;;;18.88;39.63;99038.50;5118081;27;20031;-65
2022/06/13 00:22:47;;;;;;;5.78;4.00;;;;;;;18.81;39.67;99038.38;5117527;27;20106;-64
2022/06/13 00:25:12;;;;;;;6.95;4.38;;;;;;;18.72;39.95;99049.38;5095395;27;20033;-64
2022/06/13 00:27:37;;;;;;;11.77;4.70;;;;;;;18.69;40.14;99038.94;5098144;27;20070;-64
2022/06/13 00:30:05;;;;;;;9.00;4.28;;;;;;;18.74;39.65;99041.94;5116605;27;20091;-63
2022/06/13 00:32:30;;;;;;;5.53;4.10;;;;;;;18.64;40.84;99044.84;5117738;27;20043;-64
2022/06/13 00:34:55;;;;;;;22.70;5.47;;;;;;;18.60;40.68;99042.69;5115117;27;20042;-64
2022/06/13 00:37:20;;;;;;;8.48;4.03;;;;;;;18.60;40.43;99038.13;5113250;27;20043;-65
2022/06/13 00:39:45;;;;;;;6.15;3.97;;;;;;;18.55;40.40;99034.22;5115856;27;20044;-68
2022/06/13 00:42:15;;;;;;;7.47;3.70;;;;;;;18.47;40.37;99029.72;5118077;27;20048;-64
2022/06/13 00:44:40;;;;;;;8.75;4.20;;;;;;;18.50;40.54;99026.69;5118279;27;20041;-66
2022/06/13 00:47:05;;;;;;;6.15;4.05;;;;;;;18.46;40.78;99031.56;5095538;27;20039;-71
2022/06/13 00:49:41;;;;;;;6.40;3.70;;;;;;;18.51;40.89;99028.34;5079523;27;20126;-67
2022/06/13 00:52:23;;;;;;;8.23;3.72;;;;;;;18.47;40.63;99033.25;5106763;27;20719;-69
2022/06/13 00:54:50;;;;;;;5.57;3.90;;;;;;;18.33;40.93;99023.19;5107621;27;20106;-69
2022/06/13 00:57:20;;;;;;;7.07;3.60;;;;;;;18.33;41.27;99028.59;5126281;27;20045;-66
2022/06/13 00:59:47;;;;;;;8.25;4.30;;;;;;;18.32;41.62;99024.19;5126959;27;20053;-66
2022/06/13 01:02:12;;;;;;;5.88;3.92;;;;;;;18.27;41.95;99023.88;5101918;27;20038;-67
2022/06/13 01:04:37;;;;;;;5.60;3.92;;;;;;;18.26;42.20;99037.56;5117276;27;20035;-66
2022/06/13 01:07:03;;;;;;;4.78;3.63;;;;;;;18.25;42.30;99033.16;5096363;27;20039;-67
2022/06/13 01:12:13;;;;;;;4.18;3.55;;;;;;;18.18;42.93;99032.16;5114524;27;20621;-67
2022/06/13 01:15:06;;;;;;;7.30;4.20;;;;;;;18.17;42.93;99031.34;5117417;27;20045;-67
2022/06/13 01:17:34;;;;;;;5.30;3.83;;;;;;;18.13;43.65;99032.69;5077685;27;20043;-67
2022/06/13 01:20:26;;;;;;;6.90;3.53;;;;;;;18.17;43.46;99034.03;5096452;27;20039;-67
2022/06/13 01:23:20;;;;;;;6.22;4.00;;;;;;;18.09;43.70;99040.28;5097360;27;20054;-67
2022/06/13 01:25:51;;;;;;;5.72;3.53;;;;;;;18.07;43.65;99039.59;5033145;28;20052;-69
2022/06/13 01:28:40;;;;;;;5.55;4.03;;;;;;;18.02;44.03;99030.34;5033298;28;20072;-65
2022/06/13 01:31:30;;;;;;;6.50;3.97;;;;;;;17.95;44.58;99050.91;5034336;28;20052;-66
2022/06/13 01:34:13;;;;;;;9.10;4.18;;;;;;;18.06;44.31;99034.38;5033387;28;20048;-63
2022/06/13 01:36:51;;;;;;;8.32;4.10;;;;;;;17.99;44.84;99033.38;5016635;28;20562;-70
2022/06/13 01:39:50;;;;;;;6.43;3.85;;;;;;;17.95;44.91;99034.72;5030030;28;20040;-70
2022/06/13 01:42:38;;;;;;;10.27;3.78;;;;;;;17.92;45.47;99041.34;5025064;28;20040;-70
2022/06/13 01:45:14;;;;;;;5.95;3.90;;;;;;;17.88;45.85;99033.75;5000487;28;20422;-70
2022/06/13 01:48:05;;;;;;;15.02;4.78;;;;;;;17.93;45.51;99031.41;5040918;28;20040;-69
2022/06/13 01:50:43;;;;;;;4.65;3.72;;;;;;;17.87;46.01;99034.75;5003737;28;20110;-69
2022/06/13 01:53:25;;;;;;;4.68;3.75;;;;;;;17.83;45.89;99036.13;5033009;28;20436;-74
2022/06/13 01:56:08;;;;;;;4.63;3.92;;;;;;;17.85;46.16;99039.47;5032636;28;20219;-68
2022/06/13 01:58:45;;;;;;;10.35;4.32;;;;;;;17.83;46.75;99031.59;5029046;28;20041;-71
2022/06/13 02:01:22;;;;;;;6.90;4.35;;;;;;;17.82;47.67;99031.75;5028043;28;20048;-71
2022/06/13 02:03:59;;;;;;;5.20;3.97;;;;;;;17.87;47.17;99032.91;5049541;28;20046;-71
2022/06/13 02:06:31;;;;;;;8.40;3.90;;;;;;;17.81;48.11;99032.75;5092355;28;20097;-72
2022/06/13 02:09:06;;;;;;;5.75;3.53;;;;;;;17.84;47.58;99025.16;5103053;27;20404;-70
2022/06/13 02:11:38;;;;;;;7.57;4.45;;;;;;;17.84;48.08;99027.00;5097111;28;20136;-70
2022/06/13 02:14:12;;;;;;;5.22;4.38;;;;;;;17.88;48.17;99020.25;5099706;28;20070;-69
2022/06/13 02:17:10;;;;;;;7.30;3.67;;;;;;;17.96;47.44;99023.78;5109685;27;20082;-72
2022/06/13 02:19:55;;;;;;;8.75;4.30;;;;;;;17.90;48.05;99018.25;5104334;27;20055;-74
2022/06/13 02:22:21;;;;;;;7.50;4.07;;;;;;;17.82;48.84;99012.88;5114248;27;20038;-72
2022/06/13 02:25:01;;;;;;;5.93;4.45;;;;;;;17.81;48.86;99013.88;5078156;27;20061;-72
2022/06/13 02:27:32;;;;;;;6.55;3.75;;;;;;;17.83;48.63;99015.41;5115744;27;20096;-70
2022/06/13 02:30:03;;;;;;;11.00;4.38;;;;;;;17.87;48.97;99005.94;5120940;27;20042;-69
2022/06/13 02:32:54;;;;;;;5.53;4.30;;;;;;;17.93;48.49;99004.44;5120706;27;20137;-70
2022/06/13 02:35:32;;;;;;;9.23;4.38;;;;;;;17.92;48.80;99003.59;5090498;27;20513;-70
2022/06/13 02:38:07;;;;;;;5.68;4.25;;;;;;;17.92;49.30;99008.13;5101678;27;20129;-70
2022/06/13 02:40:35;;;;;;;8.23;4.28;;;;;;;17.91;49.45;99011.84;5105512;27;20034;-70
2022/06/13 02:43:17;;;;;;;5.60;4.00;;;;;;;17.96;49.93;99014.84;5125220;27;20095;-65
2022/06/13 02:45:45;;;;;;;9.18;4.40;;;;;;;18.07;49.12;99012.63;5125132;27;20609;-64
2022/06/13 02:48:12;;;;;;;6.32;3.97;;;;;;;18.26;48.90;99022.22;5126611;27;20056;-64
2022/06/13 02:51:05;;;;;;;5.97;4.32;;;;;;;18.51;48.62;99015.69;5120778;27;20027;-64
2022/06/13 02:53:40;;;;;;;9.02;4.03;;;;;;;18.64;49.07;99015.16;5119661;27;20046;-64
2022/06/13 02:56:32;;;;;;;5.57;4.38;;;;;;;18.81;48.51;99021.31;5120137;27;20042;-63
2022/06/13 02:59:17;;;;;;;8.40;4.50;;;;;;;18.91;48.66;99021.09;5101687;27;20043;-64
2022/06/13 03:01:46;;;;;;;5.93;4.22;;;;;;;18.94;49.04;99016.19;5083447;27;20368;-63
2022/06/13 03:04:22;;;;;;;8.23;4.95;;;;;;;19.02;48.77;99008.03;5113783;27;20042;-68
2022/06/13 03:07:10;;;;;;;5.30;4.53;;;;;;;19.09;49.03;99011.69;5114514;27;20058;-66
2022/06/13 03:09:48;;;;;;;9.98;5.40;;;;;;;19.12;49.38;99005.09;5099771;27;20460;-64
2022/06/13 03:12:19;;;;;;;9.60;4.68;;;;;;;19.15;49.53;99000.16;5116061;27;20062;-65
2022/06/13 03:14:47;;;;;;;7.32;4.47;;;;;;;19.14;49.69;98994.94;5083869;27;20145;-65
2022/06/13 03:17:18;;;;;;;7.68;4.55;;;;;;;19.24;49.06;98990.13;5116829;27;20069;-65
2022/06/13 03:19:56;;;;;;;6.55;4.78;;;;;;;19.29;49.52;98997.72;5097252;27;20091;-66
2022/06/13 03:22:28;;;;;;;7.93;5.00;;;;;;;19.36;49.54;98993.25;5117006;27;20113;-63
2022/06/13 03:24:53;;;;;;;11.05;5.35;;;;;;;19.35;49.00;98995.13;5099119;27;20046;-64
2022/06/13 03:27:47;;;;;;;6.45;4.45;;;;;;;19.49;49.01;98990.81;5117044;27;20046;-63
2022/06/13 03:30:16;;;;;;;9.70;4.77;;;;;;;19.46;49.20;98989.28;5111320;27;20117;-63
2022/06/13 03:33:39;;;;;;;8.77;5.18;;;;;;;19.54;48.94;98991.09;5116386;27;20077;-64
2022/06/13 03:35:30;;;;;;;9.57;5.32;;;;;;;19.43;49.35;98991.50;5093322;27;20092;-63
2022/06/13 03:37:55;;;;;;;11.75;4.63;;;;;;;19.37;49.66;98984.97;5117395;27;20034;-62
2022/06/13 03:40:26;;;;;;;10.05;4.25;;;;;;;19.39;50.19;98993.75;5117880;27;20039;-64
2022/06/13 03:43:04;;;;;;;8.65;5.43;;;;;;;19.29;49.86;98986.91;5112288;27;20445;-63
2022/06/13 03:45:36;;;;;;;6.82;4.95;;;;;;;19.45;49.42;98994.84;5111419;27;20047;-63
2022/06/13 03:48:20;;;;;;;8.40;4.72;;;;;;;19.77;48.57;98989.19;5116757;27;20035;-63
2022/06/13 03:51:00;;;;;;;9.07;4.93;;;;;;;19.88;48.90;98988.72;5113739;27;20049;-62
2022/06/13 03:53:37;;;;;;;7.10;5.07;;;;;;;20.03;48.36;98988.75;5097183;27;20037;-63
2022/06/13 03:56:37;;;;;;;13.48;5.43;;;;;;;20.12;48.42;98979.50;5117312;27;20057;-63
2022/06/13 03:59:13;;;;;;;9.77;4.95;;;;;;;20.22;48.70;98979.22;5098508;27;20118;-63
2022/06/13 04:02:03;;;;;;;9.57;5.28;;;;;;;20.43;47.93;98981.22;5116809;27;20512;-61
2022/06/13 04:04:39;;;;;;;8.20;5.03;;;;;;;20.55;47.65;98985.94;5104519;27;20046;-62
2022/06/13 04:07:04;;;;;;;9.00;5.15;;;;;;;20.66;47.46;98984.63;5098545;27;20087;-63
2022/06/13 04:09:51;;;;;;;8.80;4.88;;;;;;;20.82;47.32;98980.84;5098261;27;20073;-66
2022/06/13 04:12:35;;;;;;;8.70;5.10;;;;;;;20.91;47.07;98987.84;5098335;27;20046;-64
2022/06/13 04:15:20;;;;;;;8.52;5.75;;;;;;;20.91;47.09;98977.84;5117091;27;20050;-64
2022/06/13 04:18:12;;;;;;;8.68;5.30;;;;;;;21.13;47.06;98975.97;5121031;27;20042;-64
2022/06/13 04:20:49;;;;;;;10.35;4.75;;;;;;;21.30;47.00;98966.59;5097106;27;20035;-64
2022/06/13 04:23:27;;;;;;;10.00;5.32;;;;;;;21.65;46.38;98972.94;5098366;27;20046;-64
2022/06/13 04:26:04;;;;;;;9.52;5.57;;;;;;;22.00;45.59;98976.59;5078644;27;20047;-65
2022/06/13 04:28:33;;;;;;;7.40;5.10;;;;;;;22.16;45.57;98971.84;5097267;27;20521;-66
2022/06/13 04:31:00;;;;;;;8.95;5.22;;;;;;;22.33;45.05;98967.78;5097256;27;20606;-64
2022/06/13 04:33:44;;;;;;;11.05;5.72;;;;;;;22.40;44.75;98966.78;5097898;27;20586;-64
2022/06/13 04:36:11;;;;;;;11.85;6.22;;;;;;;22.34;45.47;98967.59;5097134;27;20049;-65
2022/06/13 04:38:39;;;;;;;10.27;5.45;;;;;;;22.29;45.60;98970.06;5097093;27;20042;-64
2022/06/13 04:41:05;;;;;;;7.93;5.68;;;;;;;22.30;45.59;98966.31;5095961;27;20134;-64
2022/06/13 04:43:41;;;;;;;16.33;6.43;;;;;;;22.31;45.82;98967.97;5096954;27;20039;-64
2022/06/13 04:46:17;;;;;;;9.80;5.95;;;;;;;22.28;46.38;98972.97;5061894;27;20050;-64
2022/06/13 04:48:45;;;;;;;11.50;6.50;;;;;;;22.32;46.03;98964.22;5078659;27;20039;-65
2022/06/13 04:51:16;;;;;;;9.32;5.95;;;;;;;22.40;46.71;98963.22;5096907;27;20184;-65
2022/06/13 04:54:02;;;;;;;11.07;6.22;;;;;;;22.49;46.56;98963.88;5097074;27;20046;-64
2022/06/13 04:56:27;;;;;;;10.10;6.18;;;;;;;22.40;46.20;98965.94;5079229;27;20485;-65
2022/06/13 04:58:54;;;;;;;11.88;6.45;;;;;;;22.38;46.44;98968.84;5096496;27;20125;-64
2022/06/13 05:01:26;;;;;;;11.48;7.10;;;;;;;22.39;46.51;98981.38;5099285;27;20058;-64
2022/06/13 05:03:54;;;;;;;10.00;6.50;;;;;;;22.40;46.56;98977.63;5096816;27;20091;-66
2022/06/13 05:06:26;;;;;;;19.75;6.95;;;;;;;22.70;46.30;98977.31;5096572;27;20543;-65
2022/06/13 05:08:57;;;;;;;11.10;6.90;;;;;;;23.14;45.03;98985.00;5096167;27;20084;-65
2022/06/13 05:11:26;;;;;;;8.35;6.60;;;;;;;23.45;44.50;98979.00;5096703;27;20038;-64
2022/06/13 05:13:55;;;;;;;8.30;6.05;;;;;;;23.68;44.07;98993.06;5078443;27;20130;-64
2022/06/13 05:16:32;;;;;;;11.80;7.22;;;;;;;23.72;43.98;98988.03;5097243;27;20061;-63
2022/06/13 05:19:31;;;;;;;8.57;6.45;;;;;;;23.88;44.05;98993.91;5096673;27;20039;-64
2022/06/13 05:22:26;;;;;;;11.25;6.03;;;;;;;23.98;44.05;99001.63;5097879;27;20043;-65
2022/06/13 05:25:29;;;;;;;12.05;7.25;;;;;;;23.93;44.14;98995.97;5078038;27;20050;-65
2022/06/13 05:27:54;;;;;;;11.70;6.53;;;;;;;23.71;44.88;98986.34;5097145;27;20039;-64
2022/06/13 05:30:18;;;;;;;12.73;6.50;;;;;;;23.57;45.50;98990.97;5077283;27;20050;-64
2022/06/13 05:32:44;;;;;;;9.13;6.68;;;;;;;23.47;46.00;98999.53;5095984;27;20416;-65
2022/06/13 05:35:17;;;;;;;9.32;6.75;;;;;;;23.32;46.64;98987.16;5096296;27;20050;-65
2022/06/13 05:37:42;;;;;;;11.48;6.28;;;;;;;22.98;47.31;98994.41;5077340;27;20087;-65
2022/06/13 05:40:16;;;;;;;7.22;5.82;;;;;;;22.99;47.82;98985.22;5095746;27;20051;-64
2022/06/13 05:42:42;;;;;;;13.48;6.15;;;;;;;23.04;47.42;98987.28;5094504;27;20039;-65
2022/06/13 05:45:12;;;;;;;12.00;6.43;;;;;;;23.13;47.16;98988.81;5095911;27;20489;-66
2022/06/13 05:47:37;;;;;;;20.52;7.40;;;;;;;23.16;47.38;98983.78;5096241;27;20701;-64
2022/06/13 05:50:01;;;;;;;9.68;6.18;;;;;;;23.32;47.29;98982.56;5077463;27;20394;-64
2022/06/13 05:52:27;;;;;;;11.52;7.20;;;;;;;23.45;47.21;98990.72;5095774;27;20081;-65
2022/06/13 05:54:52;;;;;;;13.52;6.43;;;;;;;23.62;47.29;98984.91;5096057;27;20066;-65
2022/06/13 05:57:17;;;;;;;8.80;6.72;;;;;;;23.83;46.26;98990.13;5077781;27;20039;-64
2022/06/13 05:59:42;;;;;;;9.20;6.95;;;;;;;23.76;46.26;98989.28;5095901;27;20122;-66
2022/06/13 06:02:09;;;;;;;9.48;6.40;;;;;;;23.68;46.17;98992.25;5095590;27;20047;-64
2022/06/13 06:04:34;;;;;;;14.05;6.97;;;;;;;23.35;47.02;98993.03;5095569;28;20034;-65
2022/06/13 06:06:58;;;;;;;8.13;6.55;;;;;;;23.17;47.66;98990.88;5077020;28;20076;-65
2022/06/13 06:09:23;;;;;;;12.05;6.72;;;;;;;22.87;48.63;98988.72;5095415;28;20092;-65
2022/06/13 06:11:48;;;;;;;9.65;5.40;;;;;;;22.77;48.25;98989.13;5095553;28;20043;-65
2022/06/13 06:14:13;;;;;;;8.38;6.35;;;;;;;22.68;48.44;98985.72;5095460;28;20692;-65
2022/06/13 06:16:38;;;;;;;12.07;6.80;;;;;;;22.67;48.74;98981.31;5095316;28;20593;-63
2022/06/13 06:19:03;;;;;;;8.27;5.95;;;;;;;22.91;48.15;98981.84;5095360;28;20513;-65
2022/06/13 06:21:28;;;;;;;14.68;6.10;;;;;;;23.09;48.48;98982.09;5094909;28;20522;-64
2022/06/13 06:23:52;;;;;;;8.98;6.75;;;;;;;23.30;48.16;98975.63;5095345;28;20043;-65
2022/06/13 06:26:21;;;;;;;10.90;6.70;;;;;;;23.57;47.51;98979.25;5095409;28;20055;-63
2022/06/13 06:28:46;;;;;;;10.55;6.57;;;;;;;23.92;46.98;98977.16;5095689;28;20042;-64
2022/06/13 06:31:11;;;;;;;7.85;5.93;;;;;;;24.03;46.51;98971.91;5076946;28;20043;-67
2022/06/13 06:33:36;;;;;;;9.25;6.55;;;;;;;24.12;46.27;98976.06;5095300;28;20169;-63
2022/06/13 06:36:00;;;;;;;10.55;6.90;;;;;;;24.26;46.08;98974.19;5095072;28;20091;-63
2022/06/13 06:38:28;;;;;;;8.10;6.03;;;;;;;24.26;45.99;98979.63;5095234;28;20095;-64
2022/06/13 06:40:53;;;;;;;8.20;5.85;;;;;;;24.19;46.15;98976.88;5077199;28;20058;-65
2022/06/13 06:43:18;;;;;;;10.32;5.97;;;;;;;24.15;46.53;98980.25;5076655;28;20043;-64
2022/06/13 06:45:44;;;;;;;11.23;5.85;;;;;;;24.13;46.49;98977.75;5077053;28;20466;-64
2022/06/13 06:48:20;;;;;;;15.70;5.82;;;;;;;24.12;46.92;98984.22;5076910;28;20050;-63
2022/06/13 06:50:46;;;;;;;10.05;5.80;;;;;;;24.13;46.76;98980.47;5094798;28;20488;-63
2022/06/13 06:53:12;;;;;;;8.70;5.70;;;;;;;24.19;46.41;98974.16;5095008;28;20565;-65
2022/06/13 07:01:08;;;;;;;7.55;5.65;;;;;;;23.99;47.43;98976.09;5079451;28;20046;-66
2022/06/13 07:03:32;;;;;;;10.40;5.68;;;;;;;24.15;46.73;98972.91;5095681;27;20039;-66
2022/06/13 07:05:57;;;;;;;9.70;5.43;;;;;;;24.28;46.20;98973.94;5098887;27;20053;-66
2022/06/13 07:08:22;;;;;;;6.85;5.18;;;;;;;24.26;46.83;98976.91;5098652;27;20051;-65
2022/06/13 07:10:49;;;;;;;7.95;5.28;;;;;;;24.27;46.63;98975.03;5098590;27;20132;-67
2022/06/13 07:13:15;;;;;;;8.40;5.40;;;;;;;24.18;47.44;98977.09;5098491;27;20035;-65
2022/06/13 07:15:40;;;;;;;9.82;5.35;;;;;;;24.07;47.64;98973.13;5098244;27;20057;-65
2022/06/13 07:18:05;;;;;;;8.50;5.97;;;;;;;24.03;47.26;98969.19;5079926;27;20035;-64
2022/06/13 07:20:30;;;;;;;9.30;5.60;;;;;;;23.98;47.59;98955.34;5080244;27;20091;-64
2022/06/13 07:22:56;;;;;;;12.63;5.35;;;;;;;24.14;47.74;98959.50;5098480;27;20043;-63
2022/06/13 07:25:27;;;;;;;9.52;6.78;;;;;;;24.47;47.64;98959.44;5098439;27;20404;-64
2022/06/13 07:27:52;;;;;;;8.63;6.25;;;;;;;24.74;47.59;98962.88;5098572;27;20066;-63
2022/06/13 07:30:20;;;;;;;9.00;5.40;;;;;;;24.97;46.38;98968.66;5098240;27;20085;-63
2022/06/13 07:32:45;;;;;;;9.07;5.50;;;;;;;25.11;46.31;98969.41;5079778;27;20050;-64
2022/06/13 07:35:13;;;;;;;8.23;6.05;;;;;;;25.07;46.61;98968.19;5097942;27;20043;-64
2022/06/13 07:40:21;;;;;;;14.20;5.95;;;;;;;24.81;46.71;98961.81;5079836;27;20095;-63
2022/06/13 07:42:49;;;;;;;9.98;5.93;;;;;;;24.75;46.48;98962.66;5079864;27;20039;-65
2022/06/13 07:45:22;;;;;;;8.15;5.60;;;;;;;24.82;47.13;98965.38;5079469;27;20066;-65
2022/06/13 07:47:46;;;;;;;7.40;5.63;;;;;;;24.78;46.89;98966.84;5098006;27;20045;-64
2022/06/13 07:50:15;;;;;;;8.98;5.93;;;;;;;24.77;47.44;98970.63;5079489;27;20039;-63
2022/06/13 07:52:40;;;;;;;9.93;6.03;;;;;;;24.69;46.93;98962.69;5079304;27;20050;-64
2022/06/13 07:55:05;;;;;;;10.05;6.28;;;;;;;24.67;47.09;98965.66;5097931;27;20054;-64
2022/06/13 07:57:31;;;;;;;7.65;5.93;;;;;;;24.76;47.21;98966.22;5097602;27;20042;-64
2022/06/13 07:59:56;;;;;;;7.25;5.85;;;;;;;24.89;47.60;98961.53;5097613;27;20047;-65
2022/06/13 08:02:20;;;;;;;7.18;5.68;;;;;;;25.05;47.27;98964.84;5097805;27;20054;-66
2022/06/13 08:04:46;;;;;;;11.30;6.10;;;;;;;25.16;46.52;98969.63;5097571;27;20042;-66
2022/06/13 08:07:13;;;;;;;8.45;5.80;;;;;;;25.26;45.79;98959.03;5097569;27;20099;-66
2022/06/13 08:09:38;;;;;;;7.70;5.63;;;;;;;25.42;45.04;98955.75;5078787;27;20047;-66
2022/06/13 08:12:04;;;;;;;7.70;5.40;;;;;;;25.50;45.32;98960.13;5078867;27;20050;-65
2022/06/13 08:14:30;;;;;;;6.75;5.47;;;;;;;25.68;44.61;98962.94;5097222;27;20046;-64
2022/06/13 08:16:55;;;;;;;9.45;5.70;;;;;;;25.58;45.11;98955.22;5095683;27;20070;-66
2022/06/13 08:19:20;;;;;;;7.13;5.43;;;;;;;25.53;45.67;98946.84;5097069;27;20058;-64
2022/06/13 08:21:44;;;;;;;7.43;4.88;;;;;;;25.49;44.70;98939.34;5097074;27;20035;-65
2022/06/13 08:24:09;;;;;;;6.47;5.35;;;;;;;25.54;45.02;98936.78;5096846;27;20085;-64
2022/06/13 08:26:34;;;;;;;9.85;5.22;;;;;;;25.90;44.24;98939.63;5078566;27;20042;-64
2022/06/13 08:28:59;;;;;;;6.53;4.82;;;;;;;26.24;42.84;98927.28;5097530;27;20185;-64
2022/06/13 08:31:24;;;;;;;6.50;4.70;;;;;;;26.39;42.38;98933.25;5097089;27;20182;-65
2022/06/13 08:33:50;;;;;;;6.28;4.70;;;;;;;26.46;42.44;98940.50;5096831;27;20440;-64
2022/06/13 08:36:14;;;;;;;8.68;5.15;;;;;;;26.20;42.11;98925.22;5097253;27;20099;-66
2022/06/13 08:38:39;;;;;;;5.95;4.95;;;;;;;26.33;41.70;98928.69;5097186;27;20046;-64
2022/06/13 08:41:22;;;;;;;10.15;5.13;;;;;;;26.28;41.64;98916.78;5097506;27;20074;-64
2022/06/13 08:44:17;;;;;;;6.43;5.38;;;;;;;26.48;41.59;98932.94;5100006;27;20047;-66
2022/06/13 08:46:45;;;;;;;7.07;5.30;;;;;;;26.29;42.24;98926.66;5102913;27;20395;-64
2022/06/13 08:49:38;;;;;;;7.80;4.70;;;;;;;26.48;41.97;98924.72;5097407;27;20035;-72
2022/06/13 08:52:25;;;;;;;10.13;4.93;;;;;;;26.36;41.54;98930.13;5097608;27;20038;-71
2022/06/13 08:55:15;;;;;;;8.85;5.03;;;;;;;26.03;42.64;98928.56;5099195;27;20039;-64
2022/06/13 08:57:47;;;;;;;5.80;4.97;;;;;;;25.95;42.04;98920.69;5087366;27;20070;-64
2022/06/13 09:00:22;;;;;;;6.80;5.05;;;;;;;25.98;42.75;98913.91;5097751;27;20405;-69
2022/06/13 09:02:55;;;;;;;6.65;4.60;;;;;;;25.78;42.94;98919.56;5097289;27;20046;-68
2022/06/13 09:05:40;;;;;;;5.95;5.32;;;;;;;25.66;43.39;98908.56;5096750;27;20442;-65
2022/06/13 09:08:05;;;;;;;6.82;5.20;;;;;;;25.83;42.78;98910.72;5078427;27;20491;-66
2022/06/13 09:11:16;;;;;;;9.65;5.78;;;;;;;25.92;42.59;98912.94;5095425;27;20523;-65
2022/06/13 09:14:02;;;;;;;7.15;5.22;;;;;;;26.03;42.26;98908.63;5092951;27;20420;-66
2022/06/13 09:16:30;;;;;;;7.72;5.05;;;;;;;25.92;42.33;98906.63;5077664;27;20164;-66
2022/06/13 09:18:57;;;;;;;9.77;6.15;;;;;;;25.70;43.19;98906.22;5096499;27;20047;-65
2022/06/13 09:21:29;;;;;;;6.13;5.15;;;;;;;25.57;43.04;98904.41;5096135;27;20128;-65
2022/06/13 09:24:09;;;;;;;8.45;5.75;;;;;;;25.45;43.37;98910.81;5078225;27;20938;-64
2022/06/13 09:26:46;;;;;;;6.10;5.30;;;;;;;25.13;44.35;98896.41;5094226;27;20039;-65
2022/06/13 09:29:31;;;;;;;8.65;5.80;;;;;;;24.90;44.58;98900.50;5096359;27;20047;-64
2022/06/13 09:31:58;;;;;;;;;;;;;;;25.03;44.20;98893.31;5096500;27;20042;-65
2022/06/13 09:34:34;;;;;;;10.32;5.88;;;;;;;24.94;44.35;98899.03;5077882;27;19963;-64
2022/06/13 09:37:10;;;;;;;7.90;6.43;;;;;;;24.86;44.59;98902.00;5096044;27;20497;-65
2022/06/13 09:39:35;;;;;;;7.00;5.78;;;;;;;24.69;45.12;98898.13;5096151;27;20043;-64
2022/06/13 09:42:19;;;;;;;8.23;5.65;;;;;;;24.67;45.86;98896.66;5077632;28;20031;-64
2022/06/13 09:45:02;;;;;;;8.40;5.75;;;;;;;24.56;46.61;98903.63;5077172;27;20050;-65
2022/06/13 09:47:51;;;;;;;7.85;6.47;;;;;;;24.60;46.48;98908.41;5095754;27;20038;-64
2022/06/13 09:50:16;;;;;;;9.77;6.85;;;;;;;24.46;46.66;98909.56;5077504;27;20043;-65
2022/06/13 09:52:57;;;;;;;9.48;5.95;;;;;;;24.35;46.65;98902.06;5095775;27;20046;-65
2022/06/13 09:55:35;;;;;;;10.10;6.00;;;;;;;24.39;46.99;98907.88;5077738;27;20074;-65
2022/06/13 09:58:58;;;;;;;6.95;6.00;;;;;;;24.58;46.01;98902.38;5077531;28;20058;-66
2022/06/13 10:01:38;;;;;;;11.98;6.82;;;;;;;24.55;46.52;98897.34;4934579;28;20051;-65
2022/06/13 10:04:32;;;;;;;7.53;6.22;;;;;;;24.51;46.82;98906.16;4918384;28;20073;-66
2022/06/13 10:07:12;;;;;;;9.23;5.97;;;;;;;24.60;46.41;98891.25;4935177;28;20046;-64
2022/06/13 10:10:14;;;;;;;9.45;6.50;;;;;;;24.78;46.00;98896.81;4918536;28;20054;-64
2022/06/13 10:13:19;;;;;;;8.70;5.90;;;;;;;24.71;46.04;98889.72;4933737;28;20078;-64
2022/06/13 10:16:37;;;;;;;11.17;8.37;;;;;;;24.65;46.51;98885.97;4934294;28;20051;-64
2022/06/13 10:19:10;;;;;;;7.00;6.30;;;;;;;24.53;46.52;98880.38;4899276;29;20461;-65
2022/06/13 10:21:43;;;;;;;6.80;5.28;;;;;;;24.36;46.59;98878.38;4915728;29;20047;-64
2022/06/13 10:24:15;;;;;;;10.23;6.07;;;;;;;24.20;47.11;98879.66;4899771;29;20050;-64
2022/06/13 10:27:04;;;;;;;7.80;5.88;;;;;;;24.16;47.44;98865.63;4859067;29;20472;-64
2022/06/13 10:29:35;;;;;;;9.88;5.95;;;;;;;24.24;47.40;98862.72;4858574;29;20063;-64
2022/06/13 10:32:23;;;;;;;9.52;5.80;;;;;;;24.36;47.27;98853.84;4858911;29;20052;-68
2022/06/13 10:35:03;;;;;;;9.15;5.63;;;;;;;24.66;46.83;98860.38;4858840;29;20547;-64
2022/06/13 10:37:50;;;;;;;6.03;5.38;;;;;;;25.15;45.86;98859.66;4895606;28;20089;-68
2022/06/13 10:40:15;;;;;;;10.30;5.93;;;;;;;25.55;45.31;98854.66;4938681;28;20062;-64
2022/06/13 10:42:40;;;;;;;8.50;5.82;;;;;;;25.90;44.69;98852.22;4943598;28;20560;-64
2022/06/13 10:45:09;;;;;;;12.18;5.13;;;;;;;26.08;42.98;98848.66;4964298;28;20525;-65
2022/06/13 10:47:59;;;;;;;8.80;6.57;;;;;;;26.12;43.34;98852.59;4964682;28;20049;-66
2022/06/13 10:50:35;;;;;;;7.80;5.65;;;;;;;25.96;42.24;98850.50;5049680;28;20055;-64
2022/06/13 10:53:12;;;;;;;6.63;5.40;;;;;;;25.35;43.65;98845.00;5070642;28;20094;-64
2022/06/13 10:55:42;;;;;;;6.85;5.15;;;;;;;25.27;43.93;98848.88;5055071;28;20172;-65
2022/06/13 10:58:39;;;;;;;9.38;5.65;;;;;;;24.81;44.78;98841.84;5111748;27;20094;-65
2022/06/13 11:01:31;;;;;;;8.02;4.95;;;;;;;24.79;45.07;98843.94;5132272;27;20060;-65
2022/06/13 11:04:18;;;;;;;6.05;4.72;;;;;;;24.84;45.13;98852.28;5133655;27;20015;-64
2022/06/13 11:06:55;;;;;;;6.70;5.00;;;;;;;24.90;43.53;98853.31;5108732;27;20076;-63
2022/06/13 11:09:26;;;;;;;6.57;5.13;;;;;;;24.68;44.51;98849.28;5119340;27;20045;-65
2022/06/13 11:11:58;;;;;;;7.88;5.05;;;;;;;24.42;45.26;98850.25;5100781;27;20050;-62
2022/06/13 11:14:36;;;;;;;7.30;5.00;;;;;;;24.32;45.27;98883.41;5109261;27;20547;-64
2022/06/13 11:22:39;;;;;;;7.90;5.75;;;;;;;23.29;50.13;98873.31;5128858;27;20038;-65
2022/06/13 11:25:18;;;;;;;6.47;5.45;;;;;;;23.32;51.10;98872.91;5121814;27;20537;-65
2022/06/13 11:28:00;;;;;;;8.57;6.10;;;;;;;22.92;53.55;98882.91;5119331;27;20039;-64
2022/06/13 11:30:48;;;;;;;8.18;6.97;;;;;;;22.31;58.73;98891.94;5117493;27;20047;-64
2022/06/13 11:33:15;;;;;;;10.82;6.82;;;;;;;21.63;59.32;98890.09;5118177;27;20549;-65
2022/06/13 11:35:42;;;;;;;9.95;6.10;;;;;;;21.28;61.31;98884.63;5102681;27;20051;-64
2022/06/13 11:38:34;;;;;;;8.23;6.65;;;;;;;21.23;60.27;98891.66;5123380;27;20045;-67
2022/06/13 11:41:05;;;;;;;8.32;6.53;;;;;;;21.01;62.86;98888.09;5119574;27;20130;-67
2022/06/13 11:43:45;;;;;;;8.13;7.00;;;;;;;21.12;61.26;98878.59;5118892;27;20098;-67
2022/06/13 11:46:32;;;;;;;9.00;6.82;;;;;;;21.17;61.95;98874.28;5119058;27;20053;-68
2022/06/13 11:49:14;;;;;;;9.85;7.50;;;;;;;21.22;61.91;98881.88;5118825;27;20031;-67
2022/06/13 11:52:11;;;;;;;10.27;7.40;;;;;;;21.35;61.67;98880.06;5117406;27;20045;-69
2022/06/13 11:54:55;;;;;;;10.07;7.95;;;;;;;21.29;63.58;98877.31;5035053;28;20203;-64
2022/06/13 11:57:35;;;;;;;9.55;7.65;;;;;;;21.26;62.57;98880.41;5002707;28;20087;-70
2022/06/13 12:00:11;;;;;;;8.52;7.20;;;;;;;21.20;62.67;98876.63;5038720;28;20036;-70
2022/06/13 12:02:39;;;;;;;14.40;8.55;;;;;;;21.23;62.70;98887.06;5027909;28;20040;-66
2022/06/13 12:05:19;;;;;;;10.23;7.50;;;;;;;20.90;63.59;98894.88;5038859;28;20044;-69
2022/06/13 12:08:22;;;;;;;10.73;7.65;;;;;;;20.03;66.16;98896.75;5056754;28;20048;-65
2022/06/13 12:11:01;;;;;;;12.95;8.55;;;;;;;19.48;68.79;98895.34;5029741;28;20129;-65
2022/06/13 12:13:28;;;;;;;13.57;8.10;;;;;;;19.15;70.09;98902.91;5048533;28;20048;-65
2022/06/13 12:15:53;;;;;;;10.80;9.15;;;;;;;19.06;70.69;98893.19;5036173;28;20059;-64
2022/06/13 12:18:25;;;;;;;10.40;8.52;;;;;;;19.06;70.75;98895.88;5045954;28;20040;-66
2022/06/13 12:21:03;;;;;;;12.30;8.68;;;;;;;19.01;71.27;98900.13;5054024;28;20075;-64